sensor_id;sensor_type;location;lat;lon;timestamp;temperature;humidity
36132;DHT22;22185;48.738;9.324;2022-12-07T00:00:22;4.60;99.90
36132;DHT22;22185;48.738;9.324;2022-12-07T00:02:24;4.60;99.90
36132;DHT22;22185;48.738;9.324;2022-12-07T00:04:26;4.60;99.90
36132;DHT22;22185;48.738;9.324;2022-12-07T00:06:28;4.50;99.90
36132;DHT22;22185;48.738;9.324;2022-12-07T00:08:30;4.50;99.90
36132;DHT22;22185;48.738;9.324;2022-12-07T00:10:33;4.50;99.90
36132;DHT22;22185;48.738;9.324;2022-12-07T00:12:34;4.60;99.90
36132;DHT22;22185;48.738;9.324;2022-12-07T00:14:36;4.70;99.90
36132;DHT22;22185;48.738;9.324;2022-12-07T00:16:38;4.60;99.90
36132;DHT22;22185;48.738;9.324;2022-12-07T00:18:40;4.70;99.90
36132;DHT22;22185;48.738;9.324;2022-12-07T00:20:42;4.70;99.90
36132;DHT22;22185;48.738;9.324;2022-12-07T00:22:43;4.70;99.90
36132;DHT22;22185;48.738;9.324;2022-12-07T00:24:45;4.70;99.90
36132;DHT22;22185;48.738;9.324;2022-12-07T00:26:46;4.70;99.90
36132;DHT22;22185;48.738;9.324;2022-12-07T00:28:49;4.60;99.90
36132;DHT22;22185;48.738;9.324;2022-12-07T00:30:51;4.60;99.90
36132;DHT22;22185;48.738;9.324;2022-12-07T00:32:52;4.60;99.90
36132;DHT22;22185;48.738;9.324;2022-12-07T00:34:54;4.60;99.90
36132;DHT22;22185;48.738;9.324;2022-12-07T00:36:55;4.60;99.90
36132;DHT22;22185;48.738;9.324;2022-12-07T00:38:57;4.50;99.90
36132;DHT22;22185;48.738;9.324;2022-12-07T00:41:03;4.50;99.90
36132;DHT22;22185;48.738;9.324;2022-12-07T00:43:05;4.60;99.90
36132;DHT22;22185;48.738;9.324;2022-12-07T00:45:07;4.50;99.90
36132;DHT22;22185;48.738;9.324;2022-12-07T00:47:09;4.60;99.90
36132;DHT22;22185;48.738;9.324;2022-12-07T00:49:10;4.50;99.90
36132;DHT22;22185;48.738;9.324;2022-12-07T00:51:13;4.60;99.90
36132;DHT22;22185;48.738;9.324;2022-12-07T00:53:15;4.60;99.90
36132;DHT22;22185;48.738;9.324;2022-12-07T00:55:16;4.60;99.90
36132;DHT22;22185;48.738;9.324;2022-12-07T00:57:18;4.50;99.90
36132;DHT22;22185;48.738;9.324;2022-12-07T00:59:20;4.50;99.90
36132;DHT22;22185;48.738;9.324;2022-12-07T01:01:21;4.60;99.90
36132;DHT22;22185;48.738;9.324;2022-12-07T01:03:23;4.50;99.90
36132;DHT22;22185;48.738;9.324;2022-12-07T01:05:25;4.50;99.90
36132;DHT22;22185;48.738;9.324;2022-12-07T01:07:27;4.50;99.90
36132;DHT22;22185;48.738;9.324;2022-12-07T01:09:28;4.40;99.90
36132;DHT22;22185;48.738;9.324;2022-12-07T01:11:30;4.50;99.90
36132;DHT22;22185;48.738;9.324;2022-12-07T01:13:32;4.40;99.90
36132;DHT22;22185;48.738;9.324;2022-12-07T01:15:34;4.40;99.90
36132;DHT22;22185;48.738;9.324;2022-12-07T01:17:36;4.40;99.90
36132;DHT22;22185;48.738;9.324;2022-12-07T01:19:37;4.40;99.90
36132;DHT22;22185;48.738;9.324;2022-12-07T01:21:39;4.40;99.90
36132;DHT22;22185;48.738;9.324;2022-12-07T01:23:40;4.40;99.90
36132;DHT22;22185;48.738;9.324;2022-12-07T01:25:42;4.40;99.90
36132;DHT22;22185;48.738;9.324;2022-12-07T01:27:44;4.40;99.90
36132;DHT22;22185;48.738;9.324;2022-12-07T01:29:45;4.40;99.90
36132;DHT22;22185;48.738;9.324;2022-12-07T01:31:48;4.40;99.90
36132;DHT22;22185;48.738;9.324;2022-12-07T01:33:51;4.40;99.90
36132;DHT22;22185;48.738;9.324;2022-12-07T01:35:53;4.50;99.90
36132;DHT22;22185;48.738;9.324;2022-12-07T01:37:54;4.50;99.90
36132;DHT22;22185;48.738;9.324;2022-12-07T01:39:56;4.60;99.90
36132;DHT22;22185;48.738;9.324;2022-12-07T01:41:57;4.50;99.90
36132;DHT22;22185;48.738;9.324;2022-12-07T01:46:19;4.40;99.90
36132;DHT22;22185;48.738;9.324;2022-12-07T01:48:25;4.40;99.90
36132;DHT22;22185;48.738;9.324;2022-12-07T01:50:27;4.40;99.90
36132;DHT22;22185;48.738;9.324;2022-12-07T01:52:33;4.30;99.90
36132;DHT22;22185;48.738;9.324;2022-12-07T01:54:35;4.30;99.90
36132;DHT22;22185;48.738;9.324;2022-12-07T01:56:37;4.30;99.90
36132;DHT22;22185;48.738;9.324;2022-12-07T01:58:41;4.30;99.90
36132;DHT22;22185;48.738;9.324;2022-12-07T02:00:42;4.30;99.90
36132;DHT22;22185;48.738;9.324;2022-12-07T02:02:48;4.20;99.90
36132;DHT22;22185;48.738;9.324;2022-12-07T02:04:52;4.30;99.90
36132;DHT22;22185;48.738;9.324;2022-12-07T02:06:54;4.40;99.90
36132;DHT22;22185;48.738;9.324;2022-12-07T02:08:56;4.40;99.90
36132;DHT22;22185;48.738;9.324;2022-12-07T02:10:58;4.40;99.90
36132;DHT22;22185;48.738;9.324;2022-12-07T02:13:06;4.40;99.90
36132;DHT22;22185;48.738;9.324;2022-12-07T02:15:09;4.40;99.90
36132;DHT22;22185;48.738;9.324;2022-12-07T02:17:18;4.40;99.90
36132;DHT22;22185;48.738;9.324;2022-12-07T02:27:50;4.20;99.90
36132;DHT22;22185;48.738;9.324;2022-12-07T02:29:58;4.20;99.90
36132;DHT22;22185;48.738;9.324;2022-12-07T02:32:11;4.20;99.90
36132;DHT22;22185;48.738;9.324;2022-12-07T02:34:18;4.20;99.90
36132;DHT22;22185;48.738;9.324;2022-12-07T02:36:22;4.20;99.90
36132;DHT22;22185;48.738;9.324;2022-12-07T02:38:26;4.20;99.90
36132;DHT22;22185;48.738;9.324;2022-12-07T02:42:36;4.20;99.90
36132;DHT22;22185;48.738;9.324;2022-12-07T02:44:39;4.20;99.90
36132;DHT22;22185;48.738;9.324;2022-12-07T02:46:47;4.10;99.90
36132;DHT22;22185;48.738;9.324;2022-12-07T02:48:51;4.00;99.90
36132;DHT22;22185;48.738;9.324;2022-12-07T02:50:53;4.00;99.90
36132;DHT22;22185;48.738;9.324;2022-12-07T02:52:55;4.00;99.90
36132;DHT22;22185;48.738;9.324;2022-12-07T02:54:57;4.10;99.90
36132;DHT22;22185;48.738;9.324;2022-12-07T02:57:02;4.00;99.90
36132;DHT22;22185;48.738;9.324;2022-12-07T03:01:28;4.00;99.90
36132;DHT22;22185;48.738;9.324;2022-12-07T03:03:32;4.00;99.90
36132;DHT22;22185;48.738;9.324;2022-12-07T03:11:56;4.00;99.90
36132;DHT22;22185;48.738;9.324;2022-12-07T03:14:11;4.00;99.90
36132;DHT22;22185;48.738;9.324;2022-12-07T03:16:16;4.00;99.90
36132;DHT22;22185;48.738;9.324;2022-12-07T03:18:19;4.00;99.90
36132;DHT22;22185;48.738;9.324;2022-12-07T03:20:21;4.00;99.90
36132;DHT22;22185;48.738;9.324;2022-12-07T03:22:24;4.00;99.90
36132;DHT22;22185;48.738;9.324;2022-12-07T03:24:35;4.00;99.90
36132;DHT22;22185;48.738;9.324;2022-12-07T03:26:38;4.00;99.90
36132;DHT22;22185;48.738;9.324;2022-12-07T03:28:43;4.00;99.90
36132;DHT22;22185;48.738;9.324;2022-12-07T03:30:49;4.00;99.90
36132;DHT22;22185;48.738;9.324;2022-12-07T03:33:03;4.00;99.90
36132;DHT22;22185;48.738;9.324;2022-12-07T03:35:11;4.00;99.90
36132;DHT22;22185;48.738;9.324;2022-12-07T03:39:34;4.00;99.90
36132;DHT22;22185;48.738;9.324;2022-12-07T03:41:37;4.00;99.90
36132;DHT22;22185;48.738;9.324;2022-12-07T03:43:45;4.00;99.90
36132;DHT22;22185;48.738;9.324;2022-12-07T03:50:36;4.00;99.90
36132;DHT22;22185;48.738;9.324;2022-12-07T03:52:44;4.00;99.90
36132;DHT22;22185;48.738;9.324;2022-12-07T03:56:49;3.90;99.90
36132;DHT22;22185;48.738;9.324;2022-12-07T03:58:51;4.00;99.90
36132;DHT22;22185;48.738;9.324;2022-12-07T04:00:53;4.00;99.90
36132;DHT22;22185;48.738;9.324;2022-12-07T04:02:55;4.00;99.90
36132;DHT22;22185;48.738;9.324;2022-12-07T04:04:57;3.90;99.90
36132;DHT22;22185;48.738;9.324;2022-12-07T04:06:59;3.90;99.90
36132;DHT22;22185;48.738;9.324;2022-12-07T04:09:00;3.90;99.90
36132;DHT22;22185;48.738;9.324;2022-12-07T04:11:02;3.80;99.90
36132;DHT22;22185;48.738;9.324;2022-12-07T04:13:04;3.80;99.90
36132;DHT22;22185;48.738;9.324;2022-12-07T04:15:06;3.80;99.90
36132;DHT22;22185;48.738;9.324;2022-12-07T04:17:08;3.80;99.90
36132;DHT22;22185;48.738;9.324;2022-12-07T04:19:10;3.80;99.90
36132;DHT22;22185;48.738;9.324;2022-12-07T04:21:11;3.80;99.90
36132;DHT22;22185;48.738;9.324;2022-12-07T04:23:13;3.80;99.90
36132;DHT22;22185;48.738;9.324;2022-12-07T04:25:15;3.70;99.90
36132;DHT22;22185;48.738;9.324;2022-12-07T04:27:16;3.70;99.90
36132;DHT22;22185;48.738;9.324;2022-12-07T04:29:18;3.70;99.90
36132;DHT22;22185;48.738;9.324;2022-12-07T04:31:20;3.60;99.90
36132;DHT22;22185;48.738;9.324;2022-12-07T04:33:22;3.60;99.90
36132;DHT22;22185;48.738;9.324;2022-12-07T04:35:23;3.60;99.90
36132;DHT22;22185;48.738;9.324;2022-12-07T04:37:25;3.60;99.90
36132;DHT22;22185;48.738;9.324;2022-12-07T04:39:28;3.60;99.90
36132;DHT22;22185;48.738;9.324;2022-12-07T04:41:30;3.60;99.90
36132;DHT22;22185;48.738;9.324;2022-12-07T04:43:32;3.60;99.90
36132;DHT22;22185;48.738;9.324;2022-12-07T04:45:33;3.50;99.90
36132;DHT22;22185;48.738;9.324;2022-12-07T04:47:35;3.50;99.90
36132;DHT22;22185;48.738;9.324;2022-12-07T04:49:37;3.40;99.90
36132;DHT22;22185;48.738;9.324;2022-12-07T04:51:38;3.30;99.90
36132;DHT22;22185;48.738;9.324;2022-12-07T04:53:40;3.20;99.90
36132;DHT22;22185;48.738;9.324;2022-12-07T04:55:41;3.20;99.90
36132;DHT22;22185;48.738;9.324;2022-12-07T04:57:43;3.20;99.90
36132;DHT22;22185;48.738;9.324;2022-12-07T04:59:45;3.20;99.90
36132;DHT22;22185;48.738;9.324;2022-12-07T05:01:46;3.50;99.90
36132;DHT22;22185;48.738;9.324;2022-12-07T05:03:48;3.40;99.90
36132;DHT22;22185;48.738;9.324;2022-12-07T05:05:50;3.30;99.90
36132;DHT22;22185;48.738;9.324;2022-12-07T05:07:53;3.30;99.90
36132;DHT22;22185;48.738;9.324;2022-12-07T05:09:54;3.30;99.90
36132;DHT22;22185;48.738;9.324;2022-12-07T05:11:56;3.20;99.90
36132;DHT22;22185;48.738;9.324;2022-12-07T05:13:58;3.40;99.90
36132;DHT22;22185;48.738;9.324;2022-12-07T05:15:59;3.60;99.90
36132;DHT22;22185;48.738;9.324;2022-12-07T05:18:01;3.70;99.90
36132;DHT22;22185;48.738;9.324;2022-12-07T05:20:04;3.50;99.90
36132;DHT22;22185;48.738;9.324;2022-12-07T05:22:06;3.50;99.90
36132;DHT22;22185;48.738;9.324;2022-12-07T05:24:09;3.50;99.90
36132;DHT22;22185;48.738;9.324;2022-12-07T05:26:11;3.40;99.90
36132;DHT22;22185;48.738;9.324;2022-12-07T05:28:12;3.40;99.90
36132;DHT22;22185;48.738;9.324;2022-12-07T05:30:14;3.40;99.90
36132;DHT22;22185;48.738;9.324;2022-12-07T05:32:16;3.40;99.90
36132;DHT22;22185;48.738;9.324;2022-12-07T05:34:17;3.30;99.90
36132;DHT22;22185;48.738;9.324;2022-12-07T05:36:19;3.30;99.90
36132;DHT22;22185;48.738;9.324;2022-12-07T05:38:21;3.20;99.90
36132;DHT22;22185;48.738;9.324;2022-12-07T05:40:22;3.10;99.90
36132;DHT22;22185;48.738;9.324;2022-12-07T05:42:24;3.20;99.90
36132;DHT22;22185;48.738;9.324;2022-12-07T05:44:26;3.20;99.90
36132;DHT22;22185;48.738;9.324;2022-12-07T05:46:27;3.10;99.90
36132;DHT22;22185;48.738;9.324;2022-12-07T05:48:29;3.10;99.90
36132;DHT22;22185;48.738;9.324;2022-12-07T05:50:30;3.10;99.90
36132;DHT22;22185;48.738;9.324;2022-12-07T05:52:32;3.10;99.90
36132;DHT22;22185;48.738;9.324;2022-12-07T05:54:34;3.10;99.90
36132;DHT22;22185;48.738;9.324;2022-12-07T05:56:35;3.00;99.90
36132;DHT22;22185;48.738;9.324;2022-12-07T05:58:37;3.00;99.90
36132;DHT22;22185;48.738;9.324;2022-12-07T06:00:57;2.90;99.90
36132;DHT22;22185;48.738;9.324;2022-12-07T06:02:59;2.90;99.90
36132;DHT22;22185;48.738;9.324;2022-12-07T06:05:01;2.80;99.90
36132;DHT22;22185;48.738;9.324;2022-12-07T06:07:04;2.80;99.90
36132;DHT22;22185;48.738;9.324;2022-12-07T06:09:06;2.80;99.90
36132;DHT22;22185;48.738;9.324;2022-12-07T06:11:08;2.90;99.90
36132;DHT22;22185;48.738;9.324;2022-12-07T06:13:28;3.00;99.90
36132;DHT22;22185;48.738;9.324;2022-12-07T06:15:29;3.00;99.90
36132;DHT22;22185;48.738;9.324;2022-12-07T06:17:31;2.90;99.90
36132;DHT22;22185;48.738;9.324;2022-12-07T06:19:33;3.00;99.90
36132;DHT22;22185;48.738;9.324;2022-12-07T06:21:34;3.10;99.90
36132;DHT22;22185;48.738;9.324;2022-12-07T06:23:36;3.10;99.90
36132;DHT22;22185;48.738;9.324;2022-12-07T06:25:38;3.10;99.90
36132;DHT22;22185;48.738;9.324;2022-12-07T06:27:40;3.10;99.90
36132;DHT22;22185;48.738;9.324;2022-12-07T06:29:42;3.00;99.90
36132;DHT22;22185;48.738;9.324;2022-12-07T06:31:44;3.00;99.90
36132;DHT22;22185;48.738;9.324;2022-12-07T06:33:46;3.00;99.90
36132;DHT22;22185;48.738;9.324;2022-12-07T06:35:48;3.00;99.90
36132;DHT22;22185;48.738;9.324;2022-12-07T06:37:58;3.00;99.90
36132;DHT22;22185;48.738;9.324;2022-12-07T06:39:59;3.00;99.90
36132;DHT22;22185;48.738;9.324;2022-12-07T06:42:03;3.00;99.90
36132;DHT22;22185;48.738;9.324;2022-12-07T06:44:06;3.00;99.90
36132;DHT22;22185;48.738;9.324;2022-12-07T06:46:08;3.00;99.90
36132;DHT22;22185;48.738;9.324;2022-12-07T06:48:11;3.00;99.90
36132;DHT22;22185;48.738;9.324;2022-12-07T06:51:31;3.00;99.90
36132;DHT22;22185;48.738;9.324;2022-12-07T06:54:45;3.00;99.90
36132;DHT22;22185;48.738;9.324;2022-12-07T07:03:16;3.00;99.90
36132;DHT22;22185;48.738;9.324;2022-12-07T07:05:58;3.00;99.90
36132;DHT22;22185;48.738;9.324;2022-12-07T07:08:09;3.30;99.90
36132;DHT22;22185;48.738;9.324;2022-12-07T07:10:35;3.10;99.90
36132;DHT22;22185;48.738;9.324;2022-12-07T07:16:27;3.00;99.90
36132;DHT22;22185;48.738;9.324;2022-12-07T07:19:23;3.10;99.90
36132;DHT22;22185;48.738;9.324;2022-12-07T07:21:36;3.00;99.90
36132;DHT22;22185;48.738;9.324;2022-12-07T07:24:42;3.10;99.90
36132;DHT22;22185;48.738;9.324;2022-12-07T07:26:52;3.10;99.90
36132;DHT22;22185;48.738;9.324;2022-12-07T07:29:26;3.10;99.90
36132;DHT22;22185;48.738;9.324;2022-12-07T07:31:33;3.20;99.90
36132;DHT22;22185;48.738;9.324;2022-12-07T07:33:36;3.10;99.90
36132;DHT22;22185;48.738;9.324;2022-12-07T07:35:46;3.20;99.90
36132;DHT22;22185;48.738;9.324;2022-12-07T07:37:48;3.20;99.90
36132;DHT22;22185;48.738;9.324;2022-12-07T07:39:49;3.30;99.90
36132;DHT22;22185;48.738;9.324;2022-12-07T07:41:51;3.40;99.90
36132;DHT22;22185;48.738;9.324;2022-12-07T07:43:53;3.40;99.90
36132;DHT22;22185;48.738;9.324;2022-12-07T07:45:54;3.40;99.90
36132;DHT22;22185;48.738;9.324;2022-12-07T07:47:56;3.40;99.90
36132;DHT22;22185;48.738;9.324;2022-12-07T07:49:58;3.40;99.90
36132;DHT22;22185;48.738;9.324;2022-12-07T07:52:00;3.40;99.90
36132;DHT22;22185;48.738;9.324;2022-12-07T07:54:02;3.40;99.90
36132;DHT22;22185;48.738;9.324;2022-12-07T07:56:04;3.50;99.90
36132;DHT22;22185;48.738;9.324;2022-12-07T07:58:05;3.50;99.90
36132;DHT22;22185;48.738;9.324;2022-12-07T08:00:08;3.50;99.90
36132;DHT22;22185;48.738;9.324;2022-12-07T08:02:14;3.60;99.90
36132;DHT22;22185;48.738;9.324;2022-12-07T08:04:16;3.60;99.90
36132;DHT22;22185;48.738;9.324;2022-12-07T08:06:18;3.70;99.90
36132;DHT22;22185;48.738;9.324;2022-12-07T08:08:20;3.70;99.90
36132;DHT22;22185;48.738;9.324;2022-12-07T08:10:22;3.80;99.90
36132;DHT22;22185;48.738;9.324;2022-12-07T08:12:23;3.80;99.90
36132;DHT22;22185;48.738;9.324;2022-12-07T08:14:25;3.80;99.90
36132;DHT22;22185;48.738;9.324;2022-12-07T08:16:28;3.80;99.90
36132;DHT22;22185;48.738;9.324;2022-12-07T08:18:30;3.80;99.90
36132;DHT22;22185;48.738;9.324;2022-12-07T08:20:33;3.90;99.90
36132;DHT22;22185;48.738;9.324;2022-12-07T08:22:35;4.00;99.90
36132;DHT22;22185;48.738;9.324;2022-12-07T08:24:36;4.00;99.90
36132;DHT22;22185;48.738;9.324;2022-12-07T08:26:38;4.10;99.90
36132;DHT22;22185;48.738;9.324;2022-12-07T08:28:40;4.10;99.90
36132;DHT22;22185;48.738;9.324;2022-12-07T08:30:42;4.10;99.90
36132;DHT22;22185;48.738;9.324;2022-12-07T08:32:47;4.20;99.90
36132;DHT22;22185;48.738;9.324;2022-12-07T08:34:49;4.20;99.90
36132;DHT22;22185;48.738;9.324;2022-12-07T08:36:51;4.30;99.90
36132;DHT22;22185;48.738;9.324;2022-12-07T08:38:53;4.30;99.90
36132;DHT22;22185;48.738;9.324;2022-12-07T08:41:14;4.30;99.90
36132;DHT22;22185;48.738;9.324;2022-12-07T08:43:16;4.30;99.90
36132;DHT22;22185;48.738;9.324;2022-12-07T08:45:18;4.30;99.90
36132;DHT22;22185;48.738;9.324;2022-12-07T08:47:27;4.30;99.90
36132;DHT22;22185;48.738;9.324;2022-12-07T08:49:33;4.30;99.90
36132;DHT22;22185;48.738;9.324;2022-12-07T08:51:37;4.30;99.90
36132;DHT22;22185;48.738;9.324;2022-12-07T08:53:39;4.30;99.90
36132;DHT22;22185;48.738;9.324;2022-12-07T08:55:41;4.40;99.90
36132;DHT22;22185;48.738;9.324;2022-12-07T08:57:43;4.30;99.90
36132;DHT22;22185;48.738;9.324;2022-12-07T08:59:44;4.40;99.90
36132;DHT22;22185;48.738;9.324;2022-12-07T09:01:46;4.50;99.90
36132;DHT22;22185;48.738;9.324;2022-12-07T09:03:48;4.50;99.90
36132;DHT22;22185;48.738;9.324;2022-12-07T09:05:49;4.50;99.90
36132;DHT22;22185;48.738;9.324;2022-12-07T09:07:52;4.60;99.90
36132;DHT22;22185;48.738;9.324;2022-12-07T09:09:55;4.70;99.90
36132;DHT22;22185;48.738;9.324;2022-12-07T09:11:57;4.70;99.90
36132;DHT22;22185;48.738;9.324;2022-12-07T09:13:59;4.70;99.90
36132;DHT22;22185;48.738;9.324;2022-12-07T09:16:01;4.80;99.90
36132;DHT22;22185;48.738;9.324;2022-12-07T09:18:03;4.70;99.90
36132;DHT22;22185;48.738;9.324;2022-12-07T09:20:07;4.90;99.90
36132;DHT22;22185;48.738;9.324;2022-12-07T09:22:10;4.80;99.90
36132;DHT22;22185;48.738;9.324;2022-12-07T09:24:12;4.70;99.90
36132;DHT22;22185;48.738;9.324;2022-12-07T09:26:14;4.80;99.90
36132;DHT22;22185;48.738;9.324;2022-12-07T09:28:17;4.90;99.90
36132;DHT22;22185;48.738;9.324;2022-12-07T09:30:18;5.00;99.90
36132;DHT22;22185;48.738;9.324;2022-12-07T09:32:20;4.80;99.90
36132;DHT22;22185;48.738;9.324;2022-12-07T09:34:22;4.60;99.90
36132;DHT22;22185;48.738;9.324;2022-12-07T09:36:25;4.70;99.90
36132;DHT22;22185;48.738;9.324;2022-12-07T09:38:27;4.70;99.90
36132;DHT22;22185;48.738;9.324;2022-12-07T09:40:30;4.80;99.90
36132;DHT22;22185;48.738;9.324;2022-12-07T09:42:35;4.90;99.90
36132;DHT22;22185;48.738;9.324;2022-12-07T09:44:39;5.10;99.90
36132;DHT22;22185;48.738;9.324;2022-12-07T09:46:41;5.20;99.90
36132;DHT22;22185;48.738;9.324;2022-12-07T09:48:44;5.00;99.90
36132;DHT22;22185;48.738;9.324;2022-12-07T09:50:47;5.00;99.90
36132;DHT22;22185;48.738;9.324;2022-12-07T09:52:49;5.10;99.90
36132;DHT22;22185;48.738;9.324;2022-12-07T09:54:52;5.10;99.90
36132;DHT22;22185;48.738;9.324;2022-12-07T09:56:53;5.10;99.90
36132;DHT22;22185;48.738;9.324;2022-12-07T09:58:59;5.30;99.90
36132;DHT22;22185;48.738;9.324;2022-12-07T10:03:09;5.50;99.90
36132;DHT22;22185;48.738;9.324;2022-12-07T10:05:14;5.60;99.90
36132;DHT22;22185;48.738;9.324;2022-12-07T10:07:24;5.30;99.90
36132;DHT22;22185;48.738;9.324;2022-12-07T10:09:28;5.30;99.90
36132;DHT22;22185;48.738;9.324;2022-12-07T10:11:57;5.40;99.90
36132;DHT22;22185;48.738;9.324;2022-12-07T10:14:10;5.50;99.90
36132;DHT22;22185;48.738;9.324;2022-12-07T10:20:31;5.50;99.90
36132;DHT22;22185;48.738;9.324;2022-12-07T10:22:32;5.40;99.90
36132;DHT22;22185;48.738;9.324;2022-12-07T10:24:34;5.50;99.90
36132;DHT22;22185;48.738;9.324;2022-12-07T10:26:38;5.60;99.90
36132;DHT22;22185;48.738;9.324;2022-12-07T10:28:40;5.40;99.90
36132;DHT22;22185;48.738;9.324;2022-12-07T10:32:54;5.60;99.90
36132;DHT22;22185;48.738;9.324;2022-12-07T10:35:15;5.60;99.90
36132;DHT22;22185;48.738;9.324;2022-12-07T10:37:19;5.60;99.90
36132;DHT22;22185;48.738;9.324;2022-12-07T10:39:22;5.70;99.90
36132;DHT22;22185;48.738;9.324;2022-12-07T10:41:23;5.60;99.90
36132;DHT22;22185;48.738;9.324;2022-12-07T10:43:25;5.60;99.90
36132;DHT22;22185;48.738;9.324;2022-12-07T10:45:27;5.70;99.90
36132;DHT22;22185;48.738;9.324;2022-12-07T10:53:55;5.60;99.90
36132;DHT22;22185;48.738;9.324;2022-12-07T11:00:46;5.70;99.90
36132;DHT22;22185;48.738;9.324;2022-12-07T11:02:57;5.60;99.90
36132;DHT22;22185;48.738;9.324;2022-12-07T11:05:06;5.60;99.90
36132;DHT22;22185;48.738;9.324;2022-12-07T11:13:34;5.60;99.90
36132;DHT22;22185;48.738;9.324;2022-12-07T11:17:53;5.60;99.90
36132;DHT22;22185;48.738;9.324;2022-12-07T11:24:40;5.50;99.90
36132;DHT22;22185;48.738;9.324;2022-12-07T11:33:11;5.40;99.90
36132;DHT22;22185;48.738;9.324;2022-12-07T11:35:22;5.40;99.90
36132;DHT22;22185;48.738;9.324;2022-12-07T11:37:34;5.40;99.90
36132;DHT22;22185;48.738;9.324;2022-12-07T11:39:48;5.50;99.90
36132;DHT22;22185;48.738;9.324;2022-12-07T11:41:52;5.50;99.90
36132;DHT22;22185;48.738;9.324;2022-12-07T11:46:05;5.50;99.90
36132;DHT22;22185;48.738;9.324;2022-12-07T11:48:11;5.50;99.90
36132;DHT22;22185;48.738;9.324;2022-12-07T11:54:41;5.60;99.90
36132;DHT22;22185;48.738;9.324;2022-12-07T11:56:45;5.50;99.90
36132;DHT22;22185;48.738;9.324;2022-12-07T11:58:51;5.50;99.90
36132;DHT22;22185;48.738;9.324;2022-12-07T12:01:01;5.50;99.90
36132;DHT22;22185;48.738;9.324;2022-12-07T12:03:19;5.60;99.90
36132;DHT22;22185;48.738;9.324;2022-12-07T12:05:22;5.60;99.90
36132;DHT22;22185;48.738;9.324;2022-12-07T12:07:25;5.60;99.90
36132;DHT22;22185;48.738;9.324;2022-12-07T12:09:49;5.60;99.90
36132;DHT22;22185;48.738;9.324;2022-12-07T12:21:16;5.50;99.90
36132;DHT22;22185;48.738;9.324;2022-12-07T12:23:21;5.50;99.90
36132;DHT22;22185;48.738;9.324;2022-12-07T12:25:46;5.50;99.90
36132;DHT22;22185;48.738;9.324;2022-12-07T12:27:45;5.40;99.90
36132;DHT22;22185;48.738;9.324;2022-12-07T12:29:51;5.40;99.90
36132;DHT22;22185;48.738;9.324;2022-12-07T12:32:07;5.50;99.90
36132;DHT22;22185;48.738;9.324;2022-12-07T12:36:43;5.50;99.90
36132;DHT22;22185;48.738;9.324;2022-12-07T12:39:07;5.50;99.90
36132;DHT22;22185;48.738;9.324;2022-12-07T12:41:22;5.40;99.90
36132;DHT22;22185;48.738;9.324;2022-12-07T12:43:52;5.40;99.90
36132;DHT22;22185;48.738;9.324;2022-12-07T12:48:28;5.40;99.90
36132;DHT22;22185;48.738;9.324;2022-12-07T12:50:34;5.40;99.90
36132;DHT22;22185;48.738;9.324;2022-12-07T12:55:12;5.40;99.90
36132;DHT22;22185;48.738;9.324;2022-12-07T12:57:19;5.40;99.90
36132;DHT22;22185;48.738;9.324;2022-12-07T13:03:36;5.40;99.90
36132;DHT22;22185;48.738;9.324;2022-12-07T13:05:38;5.40;99.90
36132;DHT22;22185;48.738;9.324;2022-12-07T13:09:54;5.50;99.90
36132;DHT22;22185;48.738;9.324;2022-12-07T13:11:57;5.50;99.90
36132;DHT22;22185;48.738;9.324;2022-12-07T13:22:47;5.50;99.90
36132;DHT22;22185;48.738;9.324;2022-12-07T13:24:53;5.40;99.90
36132;DHT22;22185;48.738;9.324;2022-12-07T13:26:55;5.30;99.90
36132;DHT22;22185;48.738;9.324;2022-12-07T13:31:16;5.30;99.90
36132;DHT22;22185;48.738;9.324;2022-12-07T13:33:20;5.30;99.90
36132;DHT22;22185;48.738;9.324;2022-12-07T13:37:30;5.40;99.90
36132;DHT22;22185;48.738;9.324;2022-12-07T13:39:46;5.40;99.90
36132;DHT22;22185;48.738;9.324;2022-12-07T13:41:55;5.40;99.90
36132;DHT22;22185;48.738;9.324;2022-12-07T13:44:02;5.40;99.90
36132;DHT22;22185;48.738;9.324;2022-12-07T13:46:04;5.40;99.90
36132;DHT22;22185;48.738;9.324;2022-12-07T13:48:10;5.40;99.90
36132;DHT22;22185;48.738;9.324;2022-12-07T13:50:30;5.30;99.90
36132;DHT22;22185;48.738;9.324;2022-12-07T13:52:32;5.40;99.90
36132;DHT22;22185;48.738;9.324;2022-12-07T13:54:42;5.30;99.90
36132;DHT22;22185;48.738;9.324;2022-12-07T13:56:47;5.30;99.90
36132;DHT22;22185;48.738;9.324;2022-12-07T13:58:49;5.40;99.90
36132;DHT22;22185;48.738;9.324;2022-12-07T14:00:51;5.30;99.90
36132;DHT22;22185;48.738;9.324;2022-12-07T14:07:18;5.40;99.90
36132;DHT22;22185;48.738;9.324;2022-12-07T14:09:21;5.50;99.90
36132;DHT22;22185;48.738;9.324;2022-12-07T14:11:28;5.40;99.90
36132;DHT22;22185;48.738;9.324;2022-12-07T14:13:44;5.50;99.90
36132;DHT22;22185;48.738;9.324;2022-12-07T14:15:49;5.50;99.90
36132;DHT22;22185;48.738;9.324;2022-12-07T14:17:51;5.60;99.90
36132;DHT22;22185;48.738;9.324;2022-12-07T14:19:57;5.60;99.90
36132;DHT22;22185;48.738;9.324;2022-12-07T14:22:05;5.50;99.90
36132;DHT22;22185;48.738;9.324;2022-12-07T14:24:19;5.50;99.90
36132;DHT22;22185;48.738;9.324;2022-12-07T14:26:24;5.50;99.90
36132;DHT22;22185;48.738;9.324;2022-12-07T14:28:29;5.40;99.90
36132;DHT22;22185;48.738;9.324;2022-12-07T14:30:32;5.40;99.90
36132;DHT22;22185;48.738;9.324;2022-12-07T14:32:35;5.40;99.90
36132;DHT22;22185;48.738;9.324;2022-12-07T14:34:37;5.50;99.90
36132;DHT22;22185;48.738;9.324;2022-12-07T14:36:38;5.50;99.90
36132;DHT22;22185;48.738;9.324;2022-12-07T14:38:40;5.40;99.90
36132;DHT22;22185;48.738;9.324;2022-12-07T14:40:42;5.40;99.90
36132;DHT22;22185;48.738;9.324;2022-12-07T14:42:44;5.40;99.90
36132;DHT22;22185;48.738;9.324;2022-12-07T14:44:47;5.50;99.90
36132;DHT22;22185;48.738;9.324;2022-12-07T14:46:49;5.40;99.90
36132;DHT22;22185;48.738;9.324;2022-12-07T14:49:11;5.40;99.90
36132;DHT22;22185;48.738;9.324;2022-12-07T14:51:33;5.30;99.90
36132;DHT22;22185;48.738;9.324;2022-12-07T14:53:56;5.30;99.90
36132;DHT22;22185;48.738;9.324;2022-12-07T14:55:58;5.20;99.90
36132;DHT22;22185;48.738;9.324;2022-12-07T14:57:59;5.30;99.90
36132;DHT22;22185;48.738;9.324;2022-12-07T15:00:01;5.30;99.90
36132;DHT22;22185;48.738;9.324;2022-12-07T15:02:03;5.30;99.90
36132;DHT22;22185;48.738;9.324;2022-12-07T15:04:05;5.30;99.90
36132;DHT22;22185;48.738;9.324;2022-12-07T15:06:07;5.20;99.90
36132;DHT22;22185;48.738;9.324;2022-12-07T15:08:10;5.30;99.90
36132;DHT22;22185;48.738;9.324;2022-12-07T15:10:22;5.30;99.90
36132;DHT22;22185;48.738;9.324;2022-12-07T15:12:25;5.20;99.90
36132;DHT22;22185;48.738;9.324;2022-12-07T15:14:26;5.20;99.90
36132;DHT22;22185;48.738;9.324;2022-12-07T15:16:29;5.30;99.90
36132;DHT22;22185;48.738;9.324;2022-12-07T15:18:51;5.20;99.90
36132;DHT22;22185;48.738;9.324;2022-12-07T15:21:15;5.20;99.90
36132;DHT22;22185;48.738;9.324;2022-12-07T15:23:17;5.20;99.90
36132;DHT22;22185;48.738;9.324;2022-12-07T15:25:19;5.20;99.90
36132;DHT22;22185;48.738;9.324;2022-12-07T15:27:20;5.20;99.90
36132;DHT22;22185;48.738;9.324;2022-12-07T15:29:22;5.20;99.90